Time;durP1;ratioP1;P1;durP2;ratioP2;P2;SDS_P1;SDS_P2;PMS_P1;PMS_P2;Temp;Humidity;BMP_temperature;BMP_pressure;BME280_temperature;BME280_humidity;BME280_pressure;Samples;Min_cycle;Max_cycle;Signal;HPM_P1;HPM_P2
2023/05/31 00:01:25;;;;;;;10.50;6.15;;;11.40;99.90;;;;;;4936007;29;20182;-78
2023/05/31 00:03:51;;;;;;;12.45;6.43;;;11.40;99.90;;;;;;4944098;29;20258;-78
2023/05/31 00:06:17;;;;;;;11.77;6.43;;;11.40;99.90;;;;;;4950533;29;20633;-78
2023/05/31 00:08:42;;;;;;;11.60;5.90;;;11.40;99.90;;;;;;4920212;29;20182;-78
2023/05/31 00:11:10;;;;;;;12.23;6.40;;;11.40;99.90;;;;;;4936100;29;20222;-79
2023/05/31 00:13:38;;;;;;;12.27;5.93;;;11.30;99.90;;;;;;4919810;29;20266;-78
2023/05/31 00:16:05;;;;;;;13.50;6.63;;;11.30;99.90;;;;;;4953569;29;20186;-78
2023/05/31 00:18:30;;;;;;;13.02;6.75;;;11.30;99.90;;;;;;4936364;29;20246;-78
2023/05/31 00:20:56;;;;;;;14.13;5.90;;;11.30;99.90;;;;;;4936050;29;20191;-78
2023/05/31 00:23:22;;;;;;;12.70;6.82;;;11.30;99.90;;;;;;4935969;29;20577;-78
2023/05/31 00:25:48;;;;;;;14.57;6.63;;;11.30;99.90;;;;;;4953226;29;20181;-78
2023/05/31 00:28:14;;;;;;;14.25;6.72;;;11.30;99.90;;;;;;4952998;29;20183;-79
2023/05/31 00:30:40;;;;;;;13.40;6.57;;;11.20;99.90;;;;;;4952991;29;20262;-79
2023/05/31 00:33:06;;;;;;;13.88;7.00;;;11.20;99.90;;;;;;4953214;29;20224;-79
2023/05/31 00:35:31;;;;;;;16.10;7.20;;;11.20;99.90;;;;;;4935796;29;20186;-78
2023/05/31 00:37:57;;;;;;;10.32;6.43;;;11.20;99.90;;;;;;4919983;29;20699;-78
2023/05/31 00:40:23;;;;;;;10.50;6.93;;;11.20;99.90;;;;;;4938446;29;20218;-78
2023/05/31 00:42:51;;;;;;;11.13;6.45;;;11.10;99.90;;;;;;4920219;29;20230;-78
2023/05/31 00:45:17;;;;;;;14.02;7.10;;;11.10;99.90;;;;;;4920387;29;20180;-78
2023/05/31 00:47:43;;;;;;;12.80;6.38;;;11.10;99.90;;;;;;4940826;29;20741;-78
2023/05/31 00:50:10;;;;;;;11.40;7.05;;;11.20;99.90;;;;;;4955300;29;20277;-78
2023/05/31 00:52:36;;;;;;;15.30;6.75;;;11.10;99.90;;;;;;4923062;29;20293;-79
2023/05/31 00:55:02;;;;;;;12.35;6.75;;;11.10;99.90;;;;;;4939445;29;20179;-78
2023/05/31 00:57:29;;;;;;;11.80;6.63;;;11.10;99.90;;;;;;4956243;29;20178;-78
2023/05/31 00:59:55;;;;;;;11.45;7.03;;;11.10;99.90;;;;;;4956381;29;20297;-78
2023/05/31 01:02:22;;;;;;;12.90;7.05;;;11.10;99.90;;;;;;4954840;29;20273;-81
2023/05/31 01:04:49;;;;;;;12.25;6.85;;;11.00;99.90;;;;;;4954957;29;20470;-78
2023/05/31 01:07:15;;;;;;;11.23;6.70;;;11.00;99.90;;;;;;4954825;29;20195;-82
2023/05/31 01:09:42;;;;;;;12.70;7.03;;;11.00;99.90;;;;;;4956181;29;20197;-79
2023/05/31 01:12:32;;;;;;;14.48;7.28;;;11.00;99.90;;;;;;4958457;28;20369;-78
2023/05/31 01:15:17;;;;;;;14.30;7.32;;;11.00;99.90;;;;;;4946087;29;20195;-78
2023/05/31 01:18:55;;;;;;;16.10;7.38;;;11.00;99.90;;;;;;4956329;29;20635;-78
2023/05/31 01:21:32;;;;;;;15.48;7.20;;;11.00;99.90;;;;;;4860018;29;20740;-78
2023/05/31 01:24:07;;;;;;;12.52;7.05;;;11.00;99.90;;;;;;4918524;29;20198;-79
2023/05/31 01:26:48;;;;;;;17.20;7.72;;;11.00;99.90;;;;;;4952736;29;20305;-78
2023/05/31 01:29:18;;;;;;;12.25;6.95;;;11.00;99.90;;;;;;4954551;29;20221;-79
2023/05/31 01:31:46;;;;;;;14.50;7.47;;;10.90;99.90;;;;;;4937607;29;20222;-79
2023/05/31 01:34:13;;;;;;;14.85;7.65;;;10.90;99.90;;;;;;4949918;29;20282;-79
2023/05/31 01:36:39;;;;;;;18.42;8.55;;;10.90;99.90;;;;;;4936600;29;20262;-78
2023/05/31 01:39:05;;;;;;;13.00;7.00;;;10.90;99.90;;;;;;4936281;29;20271;-78
2023/05/31 01:41:36;;;;;;;17.20;8.13;;;10.80;99.90;;;;;;4942164;29;20182;-79
2023/05/31 01:44:03;;;;;;;13.35;7.78;;;10.80;99.90;;;;;;4922415;29;20184;-78
2023/05/31 01:46:29;;;;;;;14.18;7.55;;;10.80;99.90;;;;;;4922540;29;20210;-78
2023/05/31 01:48:55;;;;;;;17.88;7.90;;;10.70;99.90;;;;;;4906626;29;20182;-78
2023/05/31 01:51:22;;;;;;;18.95;8.30;;;10.70;99.90;;;;;;4937333;29;20245;-78
2023/05/31 01:53:48;;;;;;;13.27;7.90;;;10.70;99.90;;;;;;4938143;29;20659;-78
2023/05/31 01:56:15;;;;;;;14.07;8.32;;;10.70;99.90;;;;;;4937636;29;20183;-78
2023/05/31 01:58:48;;;;;;;16.15;7.97;;;10.70;99.90;;;;;;4937813;29;20652;-78
2023/05/31 02:01:17;;;;;;;15.90;7.85;;;10.60;99.90;;;;;;4937989;29;20163;-78
2023/05/31 02:03:43;;;;;;;18.92;8.30;;;10.60;99.90;;;;;;4918607;29;20194;-78
2023/05/31 02:06:13;;;;;;;17.33;8.45;;;10.60;99.90;;;;;;4944662;29;20186;-78
2023/05/31 02:08:42;;;;;;;14.77;8.50;;;10.60;99.90;;;;;;4938081;29;20217;-79
2023/05/31 02:11:08;;;;;;;15.00;8.20;;;10.60;99.90;;;;;;4910170;29;20268;-78
2023/05/31 02:13:35;;;;;;;19.77;8.73;;;10.50;99.90;;;;;;4935953;29;20600;-78
2023/05/31 02:16:03;;;;;;;16.65;9.27;;;10.50;99.90;;;;;;4918653;29;20262;-79
2023/05/31 02:18:30;;;;;;;14.63;8.95;;;10.50;99.90;;;;;;4926601;29;20598;-78
2023/05/31 02:20:56;;;;;;;20.98;8.68;;;10.50;99.90;;;;;;4921771;29;20641;-78
2023/05/31 02:23:22;;;;;;;19.77;8.95;;;10.50;99.90;;;;;;4937281;29;20202;-78
2023/05/31 02:25:50;;;;;;;17.55;8.93;;;10.50;99.90;;;;;;4954760;29;20182;-78
2023/05/31 02:28:16;;;;;;;16.17;8.50;;;10.50;99.90;;;;;;4954693;29;20286;-78
2023/05/31 02:30:54;;;;;;;16.48;8.63;;;10.50;99.90;;;;;;4937345;29;20562;-78
2023/05/31 02:33:20;;;;;;;19.83;8.93;;;10.40;99.90;;;;;;4937359;29;20170;-78
2023/05/31 02:35:46;;;;;;;19.88;8.15;;;10.40;99.90;;;;;;4937491;29;20589;-78
2023/05/31 02:38:14;;;;;;;17.67;8.50;;;10.40;99.90;;;;;;4932575;29;20192;-78
2023/05/31 02:40:39;;;;;;;18.75;9.30;;;10.40;99.90;;;;;;4930468;29;20258;-78
2023/05/31 02:43:05;;;;;;;15.48;8.63;;;10.40;99.90;;;;;;4921095;29;20189;-79
2023/05/31 02:45:31;;;;;;;19.90;8.90;;;10.30;99.90;;;;;;4933903;29;20186;-78
2023/05/31 02:48:01;;;;;;;20.27;9.13;;;10.40;99.90;;;;;;4953840;29;20201;-78
2023/05/31 02:50:27;;;;;;;16.75;9.45;;;10.40;99.90;;;;;;4953123;29;20312;-78
2023/05/31 02:52:54;;;;;;;14.88;9.25;;;10.30;99.90;;;;;;4921133;29;20186;-78
2023/05/31 02:55:34;;;;;;;21.73;9.80;;;10.30;99.90;;;;;;4937054;29;20183;-78
2023/05/31 02:58:18;;;;;;;16.77;9.45;;;10.30;99.90;;;;;;4954299;29;20556;-79
2023/05/31 03:01:03;;;;;;;20.05;10.00;;;10.30;99.90;;;;;;4954037;29;20225;-78
2023/05/31 03:03:31;;;;;;;23.65;9.65;;;10.30;99.90;;;;;;4936699;29;20217;-78
2023/05/31 03:06:01;;;;;;;20.55;9.85;;;10.30;99.90;;;;;;4921500;29;20212;-78
2023/05/31 03:08:28;;;;;;;20.27;10.15;;;10.30;99.90;;;;;;4921171;29;20281;-91
2023/05/31 03:10:54;;;;;;;24.40;9.60;;;10.30;99.90;;;;;;4937139;29;20218;-78
2023/05/31 03:13:19;;;;;;;27.83;10.77;;;10.20;99.90;;;;;;4953953;29;20310;-78
2023/05/31 03:15:46;;;;;;;24.23;9.57;;;10.20;99.90;;;;;;4953857;29;20199;-78
2023/05/31 03:18:12;;;;;;;21.75;9.57;;;10.20;99.90;;;;;;4952196;29;20253;-80
2023/05/31 03:20:40;;;;;;;24.35;10.35;;;10.20;99.90;;;;;;4936525;29;20194;-79
2023/05/31 03:23:07;;;;;;;23.63;10.43;;;10.20;99.90;;;;;;4936656;29;20197;-79
2023/05/31 03:25:34;;;;;;;19.60;8.85;;;10.20;99.90;;;;;;4933805;29;20219;-78
2023/05/31 03:28:00;;;;;;;20.25;9.55;;;10.20;99.90;;;;;;4929070;29;20622;-78
2023/05/31 03:30:27;;;;;;;19.10;9.60;;;10.20;99.90;;;;;;4935944;29;20258;-78
2023/05/31 03:32:57;;;;;;;24.42;10.20;;;10.30;99.90;;;;;;4921202;29;20182;-78
2023/05/31 03:35:23;;;;;;;18.52;10.32;;;10.30;99.90;;;;;;4935994;29;20186;-78
2023/05/31 03:37:49;;;;;;;22.65;10.05;;;10.20;99.90;;;;;;4935480;29;20190;-78
2023/05/31 03:40:15;;;;;;;25.65;10.02;;;10.20;99.90;;;;;;4920219;29;20234;-78
2023/05/31 03:42:41;;;;;;;24.58;10.32;;;10.30;99.90;;;;;;4936219;29;20277;-78
2023/05/31 03:45:08;;;;;;;27.42;10.40;;;10.30;99.90;;;;;;4920199;29;20553;-79
2023/05/31 03:47:33;;;;;;;21.95;10.43;;;10.30;99.90;;;;;;4936099;29;20287;-79
2023/05/31 03:49:59;;;;;;;24.20;10.05;;;10.30;99.90;;;;;;4936171;29;20524;-78
2023/05/31 03:52:25;;;;;;;21.25;9.98;;;10.20;99.90;;;;;;4953669;29;20190;-78
2023/05/31 03:54:51;;;;;;;24.35;10.68;;;10.30;99.90;;;;;;4953614;29;20187;-78
2023/05/31 03:57:17;;;;;;;24.65;10.55;;;10.30;99.90;;;;;;4937049;29;20233;-93
2023/05/31 03:59:43;;;;;;;25.05;10.75;;;10.30;99.90;;;;;;4936258;29;20544;-78
2023/05/31 04:02:08;;;;;;;32.25;10.57;;;10.30;99.90;;;;;;4925074;29;20190;-79
2023/05/31 04:04:35;;;;;;;24.00;10.90;;;10.30;99.90;;;;;;4936051;29;20191;-79
2023/05/31 04:07:01;;;;;;;24.88;11.25;;;10.30;99.90;;;;;;4951710;29;20205;-79
2023/05/31 04:09:27;;;;;;;24.48;11.68;;;10.30;99.90;;;;;;4936070;29;20183;-79
2023/05/31 04:11:54;;;;;;;29.73;10.95;;;10.40;99.90;;;;;;4951516;29;20387;-78
2023/05/31 04:14:19;;;;;;;24.30;11.00;;;10.30;99.90;;;;;;4953115;28;20214;-79
2023/05/31 04:16:47;;;;;;;31.17;11.77;;;10.40;99.90;;;;;;4955691;29;20202;-78
2023/05/31 04:19:14;;;;;;;26.48;11.30;;;10.40;99.90;;;;;;4939737;29;20298;-79
2023/05/31 04:21:40;;;;;;;25.30;10.88;;;10.40;99.90;;;;;;4939489;29;20225;-79
2023/05/31 04:24:06;;;;;;;28.40;11.48;;;10.40;99.90;;;;;;4971742;28;20220;-79
2023/05/31 04:26:34;;;;;;;28.17;11.45;;;10.40;99.90;;;;;;4955823;29;20277;-79
2023/05/31 04:29:02;;;;;;;27.10;10.60;;;10.50;99.90;;;;;;4971581;28;20601;-79
2023/05/31 04:31:28;;;;;;;23.45;11.07;;;10.50;99.90;;;;;;4955948;29;20293;-79
2023/05/31 04:33:57;;;;;;;26.88;11.20;;;10.50;99.90;;;;;;4939315;29;20214;-80
2023/05/31 04:36:24;;;;;;;25.55;11.07;;;10.60;99.90;;;;;;4939094;29;20186;-79
2023/05/31 04:38:51;;;;;;;23.83;10.88;;;10.60;99.90;;;;;;4939269;29;20187;-79
2023/05/31 04:41:25;;;;;;;30.05;11.35;;;10.60;99.90;;;;;;4939437;29;20297;-78
2023/05/31 04:43:53;;;;;;;24.60;11.82;;;10.70;99.90;;;;;;4939652;29;20179;-79
2023/05/31 04:46:21;;;;;;;22.85;11.15;;;10.70;99.90;;;;;;4939429;29;20204;-78
2023/05/31 04:48:49;;;;;;;23.10;10.13;;;10.80;99.90;;;;;;4939463;29;20179;-79
2023/05/31 04:51:17;;;;;;;23.38;10.65;;;10.80;99.90;;;;;;4956323;29;20345;-79
2023/05/31 04:53:47;;;;;;;29.35;10.95;;;10.90;99.90;;;;;;4928986;29;20191;-79
2023/05/31 04:56:15;;;;;;;24.17;10.68;;;10.90;99.90;;;;;;4935826;29;20210;-79
2023/05/31 04:58:41;;;;;;;23.05;10.85;;;11.00;99.90;;;;;;4936087;29;20638;-78
2023/05/31 05:01:08;;;;;;;25.83;10.57;;;11.00;99.90;;;;;;4925224;29;20605;-78
2023/05/31 05:03:46;;;;;;;24.13;10.55;;;11.10;99.90;;;;;;4924615;29;20191;-79
2023/05/31 05:06:16;;;;;;;31.83;11.40;;;11.10;99.90;;;;;;4971034;28;20249;-79
2023/05/31 05:08:43;;;;;;;26.25;10.90;;;11.20;99.90;;;;;;4937362;29;20263;-80
2023/05/31 05:11:09;;;;;;;29.67;11.07;;;11.20;99.90;;;;;;4938756;29;20253;-80
2023/05/31 05:13:35;;;;;;;31.27;10.30;;;11.30;99.90;;;;;;4938296;29;20298;-82
2023/05/31 05:16:02;;;;;;;28.52;9.73;;;11.40;99.90;;;;;;4922353;29;20198;-81
2023/05/31 05:18:29;;;;;;;32.40;10.20;;;11.40;99.90;;;;;;4930850;28;20219;-81
2023/05/31 05:20:56;;;;;;;32.85;11.63;;;11.50;99.90;;;;;;4945208;29;20647;-86
2023/05/31 05:23:25;;;;;;;30.00;11.35;;;11.50;99.90;;;;;;4949639;29;20182;-81
2023/05/31 05:25:53;;;;;;;27.23;12.30;;;11.60;99.90;;;;;;4936802;29;20194;-80
2023/05/31 05:28:19;;;;;;;32.30;11.98;;;11.70;99.90;;;;;;4922465;29;20270;-82
2023/05/31 05:30:45;;;;;;;28.38;12.13;;;11.80;99.90;;;;;;4922472;29;20361;-80
2023/05/31 05:33:11;;;;;;;32.55;12.18;;;11.80;99.90;;;;;;4937347;29;20194;-82
2023/05/31 05:35:37;;;;;;;39.72;12.32;;;11.90;99.90;;;;;;4938485;29;20278;-81
2023/05/31 05:38:03;;;;;;;26.55;11.52;;;12.00;99.90;;;;;;4935194;29;20657;-81
2023/05/31 05:40:29;;;;;;;32.30;12.77;;;12.00;99.90;;;;;;4937867;29;20280;-81
2023/05/31 05:42:55;;;;;;;29.13;11.90;;;12.10;99.90;;;;;;4953701;29;20639;-81
2023/05/31 05:45:20;;;;;;;31.35;12.57;;;12.20;99.90;;;;;;4922337;29;20194;-79
2023/05/31 05:47:48;;;;;;;32.22;11.93;;;12.30;99.90;;;;;;4920108;29;20183;-80
2023/05/31 05:50:16;;;;;;;29.90;12.25;;;12.30;99.90;;;;;;4938027;29;20202;-80
2023/05/31 05:52:42;;;;;;;30.52;11.93;;;12.40;99.90;;;;;;4937865;29;20191;-82
2023/05/31 05:55:09;;;;;;;26.10;10.40;;;12.50;99.90;;;;;;4938283;29;20186;-82
2023/05/31 05:57:35;;;;;;;27.55;10.07;;;12.60;99.90;;;;;;4950516;29;20190;-82
2023/05/31 06:00:28;;;;;;;24.52;9.65;;;12.70;99.90;;;;;;4934977;29;20214;-80
2023/05/31 06:02:54;;;;;;;24.25;9.52;;;12.80;99.90;;;;;;4942657;28;20667;-81
2023/05/31 06:05:25;;;;;;;25.33;9.45;;;12.90;99.90;;;;;;4922562;28;20497;-79
2023/05/31 06:07:52;;;;;;;21.48;9.02;;;13.00;99.90;;;;;;4922302;29;20191;-80
2023/05/31 06:10:18;;;;;;;20.98;9.32;;;13.10;99.90;;;;;;4920966;29;20194;-79
2023/05/31 06:12:44;;;;;;;23.73;9.43;;;13.20;99.90;;;;;;4921479;29;20261;-79
2023/05/31 06:15:11;;;;;;;23.15;8.98;;;13.30;99.90;;;;;;4936476;29;20203;-79
2023/05/31 06:17:37;;;;;;;20.17;8.95;;;13.30;99.90;;;;;;4912262;29;20179;-79
2023/05/31 06:20:05;;;;;;;23.05;8.80;;;13.40;99.90;;;;;;4937341;29;20326;-83
2023/05/31 06:22:31;;;;;;;19.90;7.43;;;13.50;99.90;;;;;;4930771;29;20496;-79
2023/05/31 06:24:58;;;;;;;13.25;6.65;;;13.70;99.90;;;;;;4921309;29;20217;-80
2023/05/31 06:27:24;;;;;;;24.10;7.40;;;13.80;99.90;;;;;;4947696;29;20194;-80
2023/05/31 06:29:57;;;;;;;15.65;7.07;;;13.90;99.90;;;;;;4932598;29;20621;-80
2023/05/31 06:32:31;;;;;;;18.98;6.88;;;14.00;99.90;;;;;;4930933;29;20274;-79
2023/05/31 06:34:57;;;;;;;16.23;5.78;;;14.10;99.90;;;;;;4961150;28;20190;-80
2023/05/31 06:37:23;;;;;;;14.93;6.00;;;14.20;99.90;;;;;;4955459;28;21927;-80
2023/05/31 06:39:49;;;;;;;17.73;6.13;;;14.30;99.90;;;;;;4945883;29;20183;-80
2023/05/31 06:42:16;;;;;;;11.02;5.63;;;14.30;99.90;;;;;;4921057;29;20191;-81
2023/05/31 06:44:45;;;;;;;19.67;5.63;;;14.40;99.90;;;;;;4936863;29;20559;-80
2023/05/31 06:47:19;;;;;;;12.80;5.47;;;14.50;99.90;;;;;;4951848;29;20186;-82
2023/05/31 06:50:05;;;;;;;17.23;5.57;;;14.60;99.90;;;;;;4921551;28;20647;-82
2023/05/31 06:52:50;;;;;;;16.70;5.50;;;14.80;99.90;;;;;;4938790;29;20263;-81
2023/05/31 06:55:28;;;;;;;17.15;5.53;;;14.90;99.90;;;;;;4922732;29;20198;-83
2023/05/31 06:57:54;;;;;;;12.95;5.85;;;15.00;99.90;;;;;;4933180;29;20187;-81
2023/05/31 07:00:20;;;;;;;16.02;5.80;;;15.10;99.90;;;;;;4947258;28;20187;-81
2023/05/31 07:02:46;;;;;;;14.80;5.30;;;15.10;99.90;;;;;;4928468;29;20492;-80
2023/05/31 07:05:13;;;;;;;12.60;5.60;;;15.20;99.90;;;;;;4921061;29;20202;-81
2023/05/31 07:07:38;;;;;;;11.43;5.35;;;15.30;99.90;;;;;;4938495;28;20208;-80
2023/05/31 07:10:05;;;;;;;15.35;6.00;;;15.40;99.90;;;;;;4941208;28;20245;-80
2023/05/31 07:12:31;;;;;;;16.27;5.00;;;15.40;99.90;;;;;;4932108;28;20242;-80
2023/05/31 07:14:57;;;;;;;14.13;5.53;;;15.60;99.90;;;;;;4939715;29;20207;-81
2023/05/31 07:17:23;;;;;;;16.17;5.85;;;15.70;99.90;;;;;;4935467;29;20604;-81
2023/05/31 07:19:49;;;;;;;14.02;5.60;;;15.80;99.90;;;;;;4935838;29;20286;-83
2023/05/31 07:22:17;;;;;;;10.18;4.43;;;15.90;99.90;;;;;;4953486;28;20209;-81
2023/05/31 07:24:43;;;;;;;12.75;4.00;;;16.00;99.90;;;;;;4939153;28;20273;-80
2023/05/31 07:27:10;;;;;;;8.52;3.40;;;16.10;99.90;;;;;;4957512;28;20262;-81
2023/05/31 07:29:36;;;;;;;6.35;2.88;;;16.20;99.90;;;;;;4949899;28;20182;-79
2023/05/31 07:32:02;;;;;;;9.75;3.15;;;16.30;99.90;;;;;;4943424;28;20221;-80
2023/05/31 07:34:28;;;;;;;7.07;2.72;;;16.50;99.90;;;;;;4958755;28;20187;-80
2023/05/31 07:36:53;;;;;;;7.55;2.30;;;16.60;99.90;;;;;;4935030;29;20205;-80
2023/05/31 07:39:22;;;;;;;15.85;3.30;;;16.70;99.90;;;;;;4935563;29;20264;-80
2023/05/31 07:41:48;;;;;;;11.55;2.90;;;16.90;99.90;;;;;;4951028;29;20281;-78
2023/05/31 07:44:18;;;;;;;14.05;2.90;;;17.00;99.90;;;;;;4945730;29;20253;-86
2023/05/31 07:46:44;;;;;;;5.82;2.97;;;17.10;99.90;;;;;;4925027;29;20600;-79
2023/05/31 07:49:09;;;;;;;7.82;2.58;;;17.20;99.90;;;;;;4950923;29;20265;-79
2023/05/31 07:51:35;;;;;;;5.20;2.35;;;17.30;99.90;;;;;;4920524;29;20223;-79
2023/05/31 07:54:02;;;;;;;6.00;2.35;;;17.40;99.90;;;;;;4920497;29;20636;-79
2023/05/31 07:56:28;;;;;;;4.95;2.60;;;17.60;99.90;;;;;;4901481;29;20202;-81
2023/05/31 07:58:54;;;;;;;7.78;3.05;;;17.60;99.90;;;;;;4933534;29;20269;-80
2023/05/31 08:01:20;;;;;;;8.23;2.45;;;17.80;99.90;;;;;;4936097;29;20349;-80
2023/05/31 08:03:46;;;;;;;7.75;2.92;;;17.90;99.90;;;;;;4936561;29;20202;-81
2023/05/31 08:06:12;;;;;;;7.30;2.75;;;18.00;99.90;;;;;;4921561;29;20606;-81
2023/05/31 08:08:37;;;;;;;8.57;2.50;;;18.00;99.90;;;;;;4920944;29;20266;-81
2023/05/31 08:11:03;;;;;;;11.27;3.67;;;18.10;99.90;;;;;;4917170;29;20211;-81
2023/05/31 08:13:30;;;;;;;9.73;2.70;;;18.20;99.90;;;;;;4934623;29;20226;-81
2023/05/31 08:15:56;;;;;;;7.00;2.30;;;18.30;99.90;;;;;;4932972;29;20190;-81
2023/05/31 08:18:22;;;;;;;7.05;2.90;;;18.40;99.90;;;;;;4936190;29;20498;-81
2023/05/31 08:20:48;;;;;;;7.95;2.92;;;18.50;99.90;;;;;;4920567;29;20279;-81
2023/05/31 08:23:18;;;;;;;10.43;3.00;;;18.50;99.90;;;;;;4920478;29;20215;-80
2023/05/31 08:25:44;;;;;;;7.93;3.00;;;18.60;99.90;;;;;;4954001;29;20307;-82
2023/05/31 08:28:10;;;;;;;8.65;3.25;;;18.70;99.90;;;;;;4942830;28;20205;-81
2023/05/31 08:30:35;;;;;;;14.20;3.45;;;18.80;99.90;;;;;;4964986;28;20266;-81
2023/05/31 08:33:02;;;;;;;10.15;3.20;;;18.90;99.90;;;;;;4936023;29;20598;-82
2023/05/31 08:35:28;;;;;;;8.38;2.90;;;19.00;99.90;;;;;;4936061;29;20266;-81
2023/05/31 08:37:54;;;;;;;7.63;2.70;;;19.10;99.90;;;;;;4935948;29;20594;-81
2023/05/31 08:40:21;;;;;;;13.60;3.17;;;19.20;99.90;;;;;;4936226;29;20186;-81
2023/05/31 08:42:55;;;;;;;10.85;3.00;;;19.40;99.90;;;;;;4935911;29;20191;-81
2023/05/31 08:45:21;;;;;;;10.60;3.33;;;19.40;99.90;;;;;;4936061;29;20245;-81
2023/05/31 08:47:56;;;;;;;7.35;2.85;;;19.50;99.90;;;;;;4935887;29;20226;-82
2023/05/31 08:50:24;;;;;;;9.88;3.08;;;19.60;99.90;;;;;;4936214;29;20175;-82
2023/05/31 08:52:50;;;;;;;9.77;3.40;;;19.60;99.90;;;;;;4946888;29;20195;-82
2023/05/31 08:55:17;;;;;;;8.13;3.10;;;19.60;99.90;;;;;;4923558;29;20361;-81
2023/05/31 08:57:43;;;;;;;8.20;3.30;;;19.70;99.90;;;;;;4935082;29;20606;-81
2023/05/31 09:00:11;;;;;;;9.18;2.80;;;19.80;99.90;;;;;;4954115;28;20186;-81
2023/05/31 09:02:38;;;;;;;9.65;3.45;;;19.90;99.90;;;;;;4938643;29;20210;-81
2023/05/31 09:05:05;;;;;;;12.05;3.47;;;19.90;99.90;;;;;;4956028;29;20186;-81
2023/05/31 09:07:31;;;;;;;13.10;4.93;;;20.00;99.90;;;;;;4940312;28;20217;-80
2023/05/31 09:09:57;;;;;;;12.30;6.15;;;20.00;99.90;;;;;;4943157;29;20219;-81
2023/05/31 09:12:23;;;;;;;12.70;5.75;;;20.20;99.90;;;;;;4938771;29;20250;-81
2023/05/31 09:14:48;;;;;;;16.85;7.68;;;20.20;99.90;;;;;;4956167;29;20245;-81
2023/05/31 09:17:14;;;;;;;16.20;4.13;;;20.20;99.90;;;;;;4955850;29;20263;-81
2023/05/31 09:19:48;;;;;;;14.88;6.10;;;20.30;99.90;;;;;;4956271;29;20178;-81
2023/05/31 09:22:15;;;;;;;11.40;3.45;;;20.20;99.90;;;;;;4938688;29;20179;-80
2023/05/31 09:24:56;;;;;;;13.80;6.18;;;20.20;99.90;;;;;;4922030;29;20183;-81
2023/05/31 09:27:21;;;;;;;18.52;4.07;;;20.20;99.90;;;;;;4972948;28;20216;-84
2023/05/31 09:29:54;;;;;;;15.63;8.18;;;20.20;99.90;;;;;;4968225;28;20191;-79
2023/05/31 09:32:20;;;;;;;13.52;3.80;;;20.20;99.90;;;;;;4919688;29;20693;-82
2023/05/31 09:34:46;;;;;;;13.63;4.07;;;20.20;99.90;;;;;;4949793;29;20187;-79
2023/05/31 09:37:25;;;;;;;11.35;4.05;;;20.10;99.90;;;;;;4968202;28;20187;-80
2023/05/31 09:39:57;;;;;;;9.20;4.18;;;20.10;99.90;;;;;;4932069;29;20641;-80
2023/05/31 09:42:28;;;;;;;16.70;4.53;;;20.00;99.90;;;;;;4939117;29;20190;-79
2023/05/31 09:44:54;;;;;;;12.02;4.57;;;20.00;99.90;;;;;;4923188;29;20183;-79
2023/05/31 09:47:27;;;;;;;11.48;4.60;;;20.00;99.90;;;;;;4938286;29;20545;-80
2023/05/31 09:49:55;;;;;;;15.15;5.30;;;20.00;99.90;;;;;;4945323;29;20199;-80
2023/05/31 09:52:27;;;;;;;16.50;4.90;;;20.00;99.90;;;;;;4936536;29;20215;-80
2023/05/31 09:54:55;;;;;;;13.70;5.05;;;20.00;99.90;;;;;;4936435;29;20176;-80
2023/05/31 09:57:41;;;;;;;11.05;5.10;;;20.00;99.90;;;;;;4935441;29;20222;-81
2023/05/31 10:00:25;;;;;;;13.70;4.75;;;20.00;99.90;;;;;;4954541;29;20328;-80
2023/05/31 10:02:53;;;;;;;9.52;4.63;;;20.00;99.90;;;;;;4938774;29;20179;-80
2023/05/31 10:05:21;;;;;;;13.52;4.45;;;20.00;99.90;;;;;;4938768;29;20183;-80
2023/05/31 10:07:49;;;;;;;10.77;4.95;;;20.00;99.90;;;;;;4955776;29;20178;-80
2023/05/31 10:10:19;;;;;;;13.57;5.35;;;20.10;99.90;;;;;;4938640;29;20175;-80
2023/05/31 10:12:56;;;;;;;12.93;5.18;;;20.10;99.90;;;;;;4955028;28;20231;-80
2023/05/31 10:15:24;;;;;;;9.73;5.55;;;20.10;99.90;;;;;;4939935;29;20179;-79
2023/05/31 10:18:03;;;;;;;11.90;4.93;;;20.10;99.90;;;;;;4956456;29;20179;-80
2023/05/31 10:20:38;;;;;;;9.57;5.18;;;20.10;99.90;;;;;;4947849;29;20202;-81
2023/05/31 10:23:07;;;;;;;12.35;4.97;;;20.20;99.90;;;;;;4948659;29;20593;-81
2023/05/31 10:26:02;;;;;;;13.25;5.43;;;20.20;99.90;;;;;;4923546;29;20323;-81
2023/05/31 10:28:35;;;;;;;12.18;5.45;;;20.30;99.90;;;;;;4949869;29;20226;-80
2023/05/31 10:31:03;;;;;;;9.68;5.35;;;20.30;99.90;;;;;;4940626;29;20225;-80
2023/05/31 10:33:30;;;;;;;12.10;5.50;;;20.40;99.90;;;;;;4937974;29;20183;-81
2023/05/31 10:35:58;;;;;;;12.00;7.68;;;20.40;99.90;;;;;;4939491;29;20210;-82
2023/05/31 10:38:35;;;;;;;11.98;5.68;;;20.40;99.90;;;;;;4962651;29;20249;-79
2023/05/31 10:41:09;;;;;;;13.73;5.55;;;20.40;99.90;;;;;;4941837;29;20163;-80
2023/05/31 10:43:46;;;;;;;14.73;5.47;;;20.40;99.90;;;;;;4942180;29;20244;-80
2023/05/31 10:46:20;;;;;;;10.40;7.95;;;20.50;99.90;;;;;;4923711;29;20182;-81
2023/05/31 10:48:48;;;;;;;13.10;7.50;;;20.60;99.90;;;;;;4955895;29;20198;-80
2023/05/31 10:51:16;;;;;;;10.75;5.30;;;20.60;99.90;;;;;;4955021;29;20362;-86
2023/05/31 10:53:45;;;;;;;15.93;7.20;;;20.70;99.90;;;;;;4908356;28;20195;-81
2023/05/31 10:56:13;;;;;;;13.48;9.02;;;20.70;99.90;;;;;;4974406;28;20662;-80
2023/05/31 10:58:39;;;;;;;11.63;6.15;;;20.70;99.90;;;;;;4967077;28;20175;-80
2023/05/31 11:01:06;;;;;;;13.38;9.15;;;20.80;99.90;;;;;;4937438;29;20186;-80
2023/05/31 11:03:43;;;;;;;13.07;8.48;;;20.80;99.90;;;;;;4937136;29;20540;-79
2023/05/31 11:06:11;;;;;;;9.77;4.60;;;20.80;99.90;;;;;;4936436;29;20182;-80
2023/05/31 11:08:37;;;;;;;12.50;4.32;;;20.80;99.90;;;;;;4936567;29;20197;-80
2023/05/31 11:11:25;;;;;;;12.27;5.03;;;20.90;99.90;;;;;;4936985;29;20210;-80
2023/05/31 11:14:01;;;;;;;13.55;5.05;;;20.90;99.90;;;;;;4953942;28;20226;-80
2023/05/31 11:16:31;;;;;;;8.65;4.40;;;20.90;99.90;;;;;;4937286;29;20192;-80
2023/05/31 11:19:05;;;;;;;11.07;5.22;;;20.90;99.90;;;;;;4937008;29;20208;-80
2023/05/31 11:21:54;;;;;;;9.73;4.88;;;20.90;99.90;;;;;;4954405;29;20206;-80
2023/05/31 11:24:37;;;;;;;9.82;4.82;;;21.00;99.90;;;;;;4952225;28;20174;-80
2023/05/31 11:27:22;;;;;;;9.23;4.10;;;21.00;99.90;;;;;;4949597;29;20238;-80
2023/05/31 11:29:51;;;;;;;7.93;3.92;;;21.00;99.90;;;;;;4948378;29;20221;-79
2023/05/31 11:32:18;;;;;;;8.50;3.90;;;21.00;99.90;;;;;;4954463;29;20278;-80
2023/05/31 11:34:56;;;;;;;9.60;3.60;;;21.10;99.90;;;;;;4954101;29;20703;-81
2023/05/31 11:37:30;;;;;;;9.90;3.40;;;21.10;99.90;;;;;;4935144;29;20285;-80
2023/05/31 11:40:00;;;;;;;12.93;4.25;;;21.20;99.90;;;;;;4937709;29;20236;-80
2023/05/31 11:42:31;;;;;;;12.15;3.80;;;21.30;99.90;;;;;;4954896;29;20286;-80
2023/05/31 11:45:03;;;;;;;10.27;4.00;;;21.30;99.90;;;;;;4937925;29;20198;-80
2023/05/31 11:47:34;;;;;;;10.00;3.70;;;21.30;99.90;;;;;;4956236;29;20174;-80
2023/05/31 11:50:01;;;;;;;14.20;3.45;;;21.40;99.90;;;;;;4953054;29;20312;-80
2023/05/31 11:52:29;;;;;;;11.35;3.75;;;21.30;99.90;;;;;;4920631;29;20218;-80
2023/05/31 11:55:03;;;;;;;13.10;3.30;;;21.30;99.90;;;;;;4936555;29;20183;-80
2023/05/31 11:57:30;;;;;;;8.65;3.35;;;21.30;99.90;;;;;;4937932;29;20197;-80
2023/05/31 12:00:10;;;;;;;11.98;3.42;;;21.30;99.90;;;;;;4920738;29;20190;-80
2023/05/31 12:02:37;;;;;;;11.45;3.22;;;21.30;99.90;;;;;;4935936;29;20233;-81
2023/05/31 12:05:04;;;;;;;9.65;3.22;;;21.30;99.90;;;;;;4936605;29;20182;-82
2023/05/31 12:07:30;;;;;;;14.10;3.30;;;21.40;99.80;;;;;;4957508;28;20186;-82
2023/05/31 12:09:56;;;;;;;9.38;3.45;;;21.40;99.40;;;;;;4933508;29;20183;-82
2023/05/31 12:12:22;;;;;;;10.43;3.05;;;21.50;99.10;;;;;;4917370;29;20257;-82
2023/05/31 12:14:53;;;;;;;11.18;3.28;;;21.60;98.80;;;;;;4949664;29;20188;-82
2023/05/31 12:17:18;;;;;;;9.55;3.10;;;21.70;98.20;;;;;;4950446;29;20190;-81
2023/05/31 12:19:48;;;;;;;7.07;3.10;;;21.70;97.90;;;;;;4952462;29;20543;-82
2023/05/31 12:22:14;;;;;;;7.00;3.17;;;21.70;97.80;;;;;;4937297;29;20286;-82
2023/05/31 12:24:59;;;;;;;7.93;2.97;;;21.70;97.90;;;;;;4953376;29;20185;-82
2023/05/31 12:27:27;;;;;;;6.00;2.97;;;21.80;97.80;;;;;;4937769;28;20575;-83
2023/05/31 12:29:56;;;;;;;9.70;3.63;;;21.80;97.70;;;;;;4962952;28;20191;-82
2023/05/31 12:32:27;;;;;;;12.20;3.50;;;21.90;97.60;;;;;;4952563;29;20217;-82
2023/05/31 12:35:03;;;;;;;8.68;3.20;;;21.90;97.50;;;;;;4936242;29;20183;-82
2023/05/31 12:37:37;;;;;;;9.77;3.90;;;21.90;97.30;;;;;;4948639;29;20245;-82
2023/05/31 12:40:20;;;;;;;8.77;3.80;;;21.90;97.20;;;;;;4957976;29;20181;-82
2023/05/31 12:42:46;;;;;;;11.48;4.32;;;21.90;97.20;;;;;;4949707;29;20542;-82
2023/05/31 12:45:12;;;;;;;9.25;4.50;;;21.90;97.10;;;;;;4940627;29;20186;-82